Time;durP1;ratioP1;P1;durP2;ratioP2;P2;SDS_P1;SDS_P2;PMS_P1;PMS_P2;Temp;Humidity;BMP_temperature;BMP_pressure;BME280_temperature;BME280_humidity;BME280_pressure;Samples;Min_cycle;Max_cycle;Signal;HPM_P1;HPM_P2
2022/04/05 00:01:42;;;;;;;8.60;2.90;;;22.20;56.90;;;;;;220636;1267;25305;-47
2022/04/05 00:06:46;;;;;;;8.70;3.30;;;22.10;57.00;;;;;;220677;1268;24330;-46
2022/04/05 00:11:50;;;;;;;9.00;3.40;;;22.10;56.70;;;;;;220799;1266;22537;-50
2022/04/05 00:16:54;;;;;;;8.10;3.20;;;22.10;56.50;;;;;;220434;1266;22535;-45
2022/04/05 00:21:58;;;;;;;7.90;3.30;;;22.10;56.50;;;;;;220844;1267;24192;-48
2022/04/05 00:27:02;;;;;;;7.90;2.90;;;22.00;56.30;;;;;;220611;1266;25472;-48
2022/04/05 00:32:06;;;;;;;5.50;2.40;;;22.00;56.10;;;;;;220541;1266;22699;-45
2022/04/05 00:37:10;;;;;;;4.80;2.70;;;22.00;56.00;;;;;;220898;1266;25374;-50
2022/04/05 00:42:14;;;;;;;6.80;2.60;;;22.10;56.30;;;;;;220704;1266;24237;-51
2022/04/05 00:47:20;;;;;;;7.10;2.50;;;22.70;55.30;;;;;;220558;1267;25409;-48
2022/04/05 00:52:24;;;;;;;7.80;2.50;;;23.00;53.80;;;;;;220954;1267;22609;-49
2022/04/05 00:57:29;;;;;;;5.30;2.50;;;23.20;53.50;;;;;;220395;1267;24229;-49
2022/04/05 01:02:39;;;;;;;5.30;2.10;;;23.30;53.30;;;;;;220294;1267;22567;-47
2022/04/05 01:07:47;;;;;;;4.50;2.00;;;23.40;52.90;;;;;;220712;1267;25379;-47
2022/04/05 01:12:50;;;;;;;5.50;2.20;;;23.60;52.20;;;;;;220523;1266;24438;-47
2022/04/05 01:17:55;;;;;;;4.90;2.10;;;23.60;52.30;;;;;;220915;1267;24295;-51
2022/04/05 01:22:59;;;;;;;6.80;2.80;;;23.70;51.90;;;;;;220824;1267;26096;-47
2022/04/05 01:28:03;;;;;;;7.90;2.50;;;23.70;52.10;;;;;;220108;1269;25225;-49
2022/04/05 01:33:22;;;;;;;4.60;2.50;;;23.80;51.50;;;;;;220883;1267;24425;-48
2022/04/05 01:38:46;;;;;;;3.30;1.80;;;23.80;51.60;;;;;;220981;1267;23128;-50
2022/04/05 01:44:00;;;;;;;4.00;2.20;;;23.80;51.20;;;;;;220601;1266;22537;-47
2022/04/05 01:49:14;;;;;;;4.80;2.00;;;23.80;51.00;;;;;;220751;1265;24467;-47
2022/04/05 01:54:23;;;;;;;3.70;1.70;;;23.90;50.80;;;;;;220953;1265;22549;-49
2022/04/05 01:59:34;;;;;;;4.00;2.20;;;23.80;50.80;;;;;;220635;1265;22559;-47
2022/04/05 02:04:47;;;;;;;5.20;2.10;;;23.70;51.20;;;;;;221074;1265;22726;-48
2022/04/05 02:10:03;;;;;;;5.70;1.90;;;23.60;50.90;;;;;;220725;1267;24225;-47
2022/04/05 02:15:16;;;;;;;3.90;2.10;;;23.50;51.10;;;;;;220527;1266;22505;-49
2022/04/05 02:20:30;;;;;;;3.20;1.90;;;23.40;51.10;;;;;;220741;1264;24437;-45
2022/04/05 02:25:48;;;;;;;5.90;1.80;;;23.30;51.30;;;;;;220912;1265;24321;-48
2022/04/05 02:30:58;;;;;;;4.90;1.70;;;23.20;51.30;;;;;;220816;1267;22612;-49
2022/04/05 02:36:15;;;;;;;3.40;1.70;;;23.00;51.60;;;;;;220991;1266;25554;-53
2022/04/05 02:41:27;;;;;;;3.10;1.60;;;22.90;51.80;;;;;;220897;1267;24280;-47
2022/04/05 02:46:32;;;;;;;4.00;1.50;;;22.80;52.00;;;;;;220905;1266;24305;-48
2022/04/05 02:51:38;;;;;;;4.60;1.80;;;22.80;52.10;;;;;;220835;1267;22787;-47
2022/04/05 02:56:47;;;;;;;4.40;1.90;;;22.70;52.10;;;;;;220873;1267;23207;-51
2022/04/05 03:01:52;;;;;;;4.80;1.60;;;22.60;52.20;;;;;;220756;1267;24229;-48
2022/04/05 03:06:57;;;;;;;5.10;1.70;;;22.60;52.20;;;;;;220608;1266;22524;-48
2022/04/05 03:12:02;;;;;;;3.50;1.50;;;22.50;52.30;;;;;;220584;1266;22561;-48
2022/04/05 03:17:08;;;;;;;2.60;1.40;;;22.50;52.40;;;;;;220575;1267;25073;-47
2022/04/05 03:22:12;;;;;;;4.00;1.30;;;22.40;52.80;;;;;;220881;1265;24373;-49
2022/04/05 03:27:15;;;;;;;3.40;1.40;;;22.40;52.60;;;;;;220889;1267;24210;-47
2022/04/05 03:32:19;;;;;;;4.70;1.50;;;22.30;52.90;;;;;;220567;1267;22695;-46
2022/04/05 03:37:24;;;;;;;2.70;1.40;;;22.30;52.80;;;;;;221003;1266;22673;-46
2022/04/05 03:42:29;;;;;;;3.20;1.40;;;22.30;53.20;;;;;;220546;1267;22564;-47
2022/04/05 03:47:33;;;;;;;4.40;1.50;;;22.20;53.00;;;;;;220386;1266;23319;-48
2022/04/05 03:52:38;;;;;;;3.60;1.50;;;22.20;52.90;;;;;;220539;1267;22525;-46
2022/04/05 03:57:43;;;;;;;3.70;1.50;;;22.30;52.90;;;;;;221144;1267;25238;-47
2022/04/05 04:02:48;;;;;;;2.90;1.40;;;22.70;52.50;;;;;;220703;1266;23065;-48
2022/04/05 04:07:52;;;;;;;3.40;1.30;;;23.00;51.60;;;;;;220513;1266;22570;-46
2022/04/05 04:12:56;;;;;;;2.60;1.10;;;23.20;50.90;;;;;;220480;1266;22602;-49
2022/04/05 04:18:01;;;;;;;2.40;1.00;;;23.30;50.50;;;;;;220105;1269;22551;-47
2022/04/05 04:23:11;;;;;;;2.10;1.10;;;23.40;50.30;;;;;;220500;1267;25404;-48
2022/04/05 04:28:29;;;;;;;2.50;1.30;;;23.50;50.50;;;;;;220569;1267;25338;-51
2022/04/05 04:33:42;;;;;;;3.10;1.70;;;23.60;50.50;;;;;;220743;1266;22683;-49
2022/04/05 04:38:46;;;;;;;4.90;1.30;;;23.70;49.70;;;;;;220333;1269;22577;-48
2022/04/05 04:43:51;;;;;;;2.30;1.20;;;23.70;49.60;;;;;;220643;1267;22678;-48
2022/04/05 04:48:54;;;;;;;3.20;1.50;;;23.70;49.40;;;;;;220535;1266;25715;-49
2022/04/05 04:53:58;;;;;;;3.30;1.40;;;23.70;49.30;;;;;;220808;1266;24219;-51
2022/04/05 04:59:02;;;;;;;2.50;1.30;;;23.70;49.20;;;;;;220709;1266;24214;-49
2022/04/05 05:04:06;;;;;;;2.80;1.40;;;23.70;49.10;;;;;;220931;1266;26849;-45
2022/04/05 05:09:10;;;;;;;3.80;1.40;;;23.60;48.70;;;;;;220592;1267;22522;-46
2022/04/05 05:14:16;;;;;;;3.20;1.20;;;23.60;49.20;;;;;;220948;1266;24375;-48
2022/04/05 05:19:21;;;;;;;2.60;1.10;;;23.50;49.30;;;;;;220795;1268;24409;-49
2022/04/05 05:24:26;;;;;;;2.80;1.30;;;23.50;49.20;;;;;;220756;1267;24192;-50
2022/04/05 05:29:30;;;;;;;2.30;1.10;;;23.50;49.30;;;;;;220805;1266;22547;-48
2022/04/05 05:34:34;;;;;;;1.80;0.90;;;23.40;49.30;;;;;;220655;1267;22778;-48
2022/04/05 05:39:39;;;;;;;5.50;1.30;;;23.40;49.20;;;;;;220704;1266;22614;-47
2022/04/05 05:44:44;;;;;;;2.80;1.10;;;23.40;49.20;;;;;;220532;1266;25556;-47
2022/04/05 05:49:58;;;;;;;3.70;1.50;;;23.40;49.30;;;;;;220615;1266;22571;-47
2022/04/05 05:55:03;;;;;;;4.50;1.40;;;23.50;49.70;;;;;;220763;1267;22617;-49
2022/04/05 06:00:10;;;;;;;3.90;1.20;;;23.50;49.60;;;;;;220589;1266;23943;-53
2022/04/05 06:05:14;;;;;;;4.20;1.40;;;23.70;49.90;;;;;;220654;1267;22535;-46
2022/04/05 06:10:21;;;;;;;4.30;1.20;;;23.60;50.10;;;;;;220427;1266;22548;-48
2022/04/05 06:15:26;;;;;;;8.40;1.50;;;23.60;50.20;;;;;;220305;1267;22720;-46
2022/04/05 06:20:32;;;;;;;8.40;1.90;;;23.50;50.50;;;;;;220358;1267;25247;-47
2022/04/05 06:25:38;;;;;;;4.10;1.50;;;23.40;51.00;;;;;;220589;1266;24224;-46
2022/04/05 06:30:44;;;;;;;9.70;1.60;;;23.30;51.50;;;;;;220181;1267;22544;-47
2022/04/05 06:35:54;;;;;;;14.80;1.50;;;23.30;52.10;;;;;;220587;1267;22524;-46
2022/04/05 06:41:00;;;;;;;7.30;1.50;;;23.10;53.30;;;;;;220521;1267;22591;-48
2022/04/05 06:46:07;;;;;;;10.50;1.70;;;23.00;53.30;;;;;;220268;1267;375760;-46
2022/04/05 06:51:11;;;;;;;10.80;1.60;;;22.90;53.50;;;;;;220344;1266;25663;-46
2022/04/05 06:56:21;;;;;;;10.20;1.60;;;22.90;54.50;;;;;;220524;1266;22541;-51
2022/04/05 07:01:26;;;;;;;7.00;1.40;;;22.80;53.90;;;;;;220327;1267;22595;-53
2022/04/05 07:06:34;;;;;;;10.20;2.30;;;22.80;54.00;;;;;;220700;1266;22692;-52
2022/04/05 07:11:37;;;;;;;8.30;1.60;;;22.80;54.10;;;;;;220523;1267;22618;-55
2022/04/05 07:16:41;;;;;;;6.90;1.50;;;22.70;53.20;;;;;;220297;1268;22554;-52
2022/04/05 07:21:45;;;;;;;3.90;1.40;;;22.60;53.20;;;;;;220280;1266;25851;-51
2022/04/05 07:26:50;;;;;;;11.60;1.30;;;22.60;52.90;;;;;;220151;1267;24407;-55
2022/04/05 07:31:54;;;;;;;3.90;1.20;;;22.60;52.80;;;;;;220830;1267;22544;-52
2022/04/05 07:37:01;;;;;;;6.30;1.60;;;22.50;52.60;;;;;;220592;1266;22561;-51
2022/04/05 07:42:08;;;;;;;3.60;1.10;;;22.50;52.60;;;;;;220313;1267;25440;-52
2022/04/05 07:47:15;;;;;;;4.10;1.40;;;22.40;52.90;;;;;;220807;1266;25412;-51
2022/04/05 07:52:19;;;;;;;3.70;1.20;;;22.40;52.80;;;;;;220717;1266;22549;-50
2022/04/05 07:57:23;;;;;;;2.80;1.00;;;22.40;52.50;;;;;;220502;1267;22570;-50
2022/04/05 08:02:26;;;;;;;6.20;1.10;;;22.40;52.50;;;;;;220400;1265;24404;-53
2022/04/05 08:07:36;;;;;;;6.20;1.20;;;22.30;52.20;;;;;;220308;1265;25318;-51
2022/04/05 08:12:44;;;;;;;8.30;1.40;;;22.30;52.70;;;;;;220499;1269;22625;-54
2022/04/05 08:17:48;;;;;;;4.50;1.00;;;22.30;52.00;;;;;;220534;1267;22588;-54
2022/04/05 08:22:52;;;;;;;4.50;1.00;;;22.40;51.90;;;;;;220464;1266;22720;-51
2022/04/05 08:27:57;;;;;;;6.20;1.40;;;22.50;52.00;;;;;;220325;1266;25071;-54
2022/04/05 08:33:04;;;;;;;5.50;1.50;;;22.50;52.50;;;;;;220292;1266;22828;-51
2022/04/05 08:38:10;;;;;;;5.80;1.10;;;22.50;52.60;;;;;;220757;1267;24571;-53
2022/04/05 08:43:13;;;;;;;4.20;1.30;;;22.50;52.30;;;;;;220782;1267;24246;-54
2022/04/05 08:48:26;;;;;;;4.20;1.10;;;22.50;52.00;;;;;;220397;1267;24428;-51
2022/04/05 08:53:33;;;;;;;4.30;0.90;;;22.40;51.90;;;;;;220584;1266;23997;-54
2022/04/05 08:58:38;;;;;;;4.20;1.30;;;22.40;52.30;;;;;;220533;1267;22687;-51
2022/04/05 09:03:42;;;;;;;2.50;1.00;;;22.30;51.80;;;;;;220641;1266;22567;-53
2022/04/05 09:08:47;;;;;;;2.10;0.90;;;22.30;51.90;;;;;;220815;1267;24294;-49
2022/04/05 09:13:58;;;;;;;2.80;1.10;;;22.30;51.80;;;;;;220519;1267;22778;-51
2022/04/05 09:19:14;;;;;;;2.40;1.10;;;22.40;51.70;;;;;;220660;1267;24405;-53
2022/04/05 09:24:18;;;;;;;2.40;1.00;;;22.60;50.80;;;;;;220758;1265;22693;-51
2022/04/05 09:29:22;;;;;;;2.40;1.00;;;22.80;50.50;;;;;;220569;1268;25553;-55
2022/04/05 09:34:26;;;;;;;3.40;1.20;;;23.00;50.20;;;;;;220470;1265;22611;-54
2022/04/05 09:39:30;;;;;;;3.90;1.00;;;23.10;50.00;;;;;;220630;1267;22986;-52
2022/04/05 09:44:38;;;;;;;2.80;1.00;;;23.20;49.70;;;;;;220426;1267;22623;-55
2022/04/05 09:49:49;;;;;;;3.00;1.40;;;23.30;49.50;;;;;;220486;1265;24289;-53
2022/04/05 09:55:11;;;;;;;2.30;0.90;;;23.40;49.00;;;;;;220703;1267;22575;-56
2022/04/05 10:00:17;;;;;;;4.10;1.00;;;23.40;48.70;;;;;;220350;1265;22567;-53
2022/04/05 10:05:23;;;;;;;1.90;0.80;;;23.60;48.30;;;;;;220620;1267;25279;-54
2022/04/05 10:10:27;;;;;;;3.40;1.20;;;23.60;48.30;;;;;;220323;1265;22884;-49
2022/04/05 10:15:32;;;;;;;1.60;0.90;;;23.50;48.40;;;;;;220381;1267;22857;-55
2022/04/05 10:20:36;;;;;;;3.80;0.90;;;23.50;48.30;;;;;;221017;1268;22557;-53
2022/04/05 10:25:41;;;;;;;2.70;1.10;;;23.40;48.50;;;;;;220958;1269;22614;-51
2022/04/05 10:30:50;;;;;;;3.70;1.20;;;23.40;48.40;;;;;;220848;1268;24419;-53
2022/04/05 10:35:57;;;;;;;1.70;1.00;;;23.30;48.40;;;;;;220644;1268;24209;-49
2022/04/05 10:41:20;;;;;;;1.70;1.00;;;23.30;48.20;;;;;;220994;1268;22820;-52
2022/04/05 10:46:54;;;;;;;2.90;1.20;;;23.30;48.20;;;;;;220932;1268;22902;-52
2022/04/05 10:52:27;;;;;;;3.90;0.90;;;23.40;48.30;;;;;;220770;1268;22574;-51
2022/04/05 10:57:35;;;;;;;2.00;1.10;;;23.30;48.10;;;;;;220952;1265;24484;-53
2022/04/05 11:02:46;;;;;;;3.60;1.20;;;23.30;48.00;;;;;;220664;1269;24279;-53
2022/04/05 11:08:00;;;;;;;3.40;1.40;;;23.30;47.90;;;;;;220713;1269;22728;-50
2022/04/05 11:13:06;;;;;;;5.80;1.30;;;23.40;47.90;;;;;;220809;1265;25348;-53
2022/04/05 11:18:11;;;;;;;8.00;1.90;;;23.50;47.80;;;;;;220398;1268;22681;-49
2022/04/05 11:23:18;;;;;;;3.40;1.30;;;23.60;47.50;;;;;;220929;1265;24293;-49
2022/04/05 11:28:25;;;;;;;4.30;1.50;;;23.70;47.40;;;;;;221120;1265;25551;-55
2022/04/05 11:33:29;;;;;;;5.80;1.30;;;23.70;47.30;;;;;;220875;1265;24432;-49
2022/04/05 11:38:56;;;;;;;5.90;1.60;;;23.60;47.40;;;;;;220683;1265;25406;-49
2022/04/05 11:44:03;;;;;;;6.40;1.50;;;23.50;47.50;;;;;;220279;1265;24084;-49
2022/04/05 11:49:10;;;;;;;4.40;1.80;;;23.50;47.60;;;;;;220533;1268;22859;-53
2022/04/05 11:54:21;;;;;;;7.40;1.60;;;23.40;47.70;;;;;;220805;1265;23189;-53
2022/04/05 11:59:27;;;;;;;7.10;1.90;;;23.40;47.70;;;;;;220569;1265;22548;-49
2022/04/05 12:04:32;;;;;;;10.10;1.80;;;23.30;47.80;;;;;;220621;1267;24267;-49
2022/04/05 12:09:36;;;;;;;5.10;2.40;;;23.20;47.80;;;;;;220640;1265;24422;-52
2022/04/05 12:14:40;;;;;;;17.30;2.10;;;23.20;48.00;;;;;;220895;1265;23199;-48
2022/04/05 12:19:45;;;;;;;5.70;2.00;;;23.10;48.10;;;;;;220832;1265;24336;-52
2022/04/05 12:24:53;;;;;;;6.40;1.80;;;23.00;48.10;;;;;;220698;1268;22692;-52
2022/04/05 12:30:02;;;;;;;7.00;1.90;;;23.00;48.00;;;;;;220699;1268;24248;-50
2022/04/05 12:35:09;;;;;;;8.20;2.10;;;22.90;48.00;;;;;;220798;1269;22590;-54
2022/04/05 12:40:24;;;;;;;5.80;1.90;;;22.90;48.00;;;;;;220334;1268;24420;-54
2022/04/05 12:45:30;;;;;;;5.90;2.00;;;22.90;48.00;;;;;;220328;1265;24297;-52
2022/04/05 12:50:45;;;;;;;8.20;2.40;;;22.90;48.00;;;;;;220331;1266;24288;-52
2022/04/05 12:56:16;;;;;;;5.40;2.10;;;22.80;47.90;;;;;;220229;1268;23973;-52
2022/04/05 13:01:25;;;;;;;7.10;2.00;;;22.80;48.30;;;;;;220612;1268;22613;-52
2022/04/05 13:06:31;;;;;;;4.80;2.00;;;22.80;48.10;;;;;;220837;1267;22547;-50
2022/04/05 13:11:37;;;;;;;4.60;1.90;;;22.70;48.20;;;;;;220791;1269;22537;-53
2022/04/05 13:16:42;;;;;;;7.00;1.90;;;22.70;48.00;;;;;;220273;1268;22535;-52
2022/04/05 13:21:49;;;;;;;5.80;2.10;;;22.60;47.90;;;;;;220187;1265;22553;-52
2022/04/05 13:26:54;;;;;;;5.90;2.00;;;22.60;47.90;;;;;;220786;1267;22717;-50
2022/04/05 13:32:01;;;;;;;6.40;1.70;;;22.50;48.00;;;;;;220672;1267;24351;-51
2022/04/05 13:37:06;;;;;;;5.50;1.90;;;22.50;47.90;;;;;;220940;1265;25235;-51
2022/04/05 13:42:13;;;;;;;3.50;1.80;;;22.50;47.90;;;;;;220847;1265;26815;-51
2022/04/05 13:47:20;;;;;;;6.50;2.00;;;22.50;47.50;;;;;;220772;1265;24009;-53
2022/04/05 13:52:30;;;;;;;5.00;1.90;;;22.50;47.80;;;;;;220740;1265;22565;-53
2022/04/05 13:57:44;;;;;;;6.30;2.50;;;22.40;47.80;;;;;;220833;1265;24248;-50
2022/04/05 14:02:48;;;;;;;7.30;2.10;;;22.40;47.80;;;;;;220731;1265;22676;-54
2022/04/05 14:07:52;;;;;;;3.70;1.90;;;22.40;47.90;;;;;;220823;1265;22929;-53
2022/04/05 14:13:00;;;;;;;5.30;1.80;;;22.30;48.10;;;;;;220934;1265;25371;-49
2022/04/05 14:18:05;;;;;;;5.60;2.00;;;22.20;48.00;;;;;;220560;1267;25874;-53
2022/04/05 14:23:09;;;;;;;5.50;2.00;;;22.40;47.70;;;;;;220683;1266;22889;-51
2022/04/05 14:28:16;;;;;;;5.80;2.00;;;22.70;46.90;;;;;;220360;1266;22543;-49
2022/04/05 14:33:21;;;;;;;7.60;1.70;;;22.90;46.40;;;;;;220861;1266;22781;-50
2022/04/05 14:38:26;;;;;;;4.60;1.80;;;23.00;46.10;;;;;;220633;1267;25707;-53
2022/04/05 14:43:35;;;;;;;3.50;1.80;;;23.20;45.90;;;;;;220808;1266;22735;-47
2022/04/05 14:48:44;;;;;;;5.10;1.70;;;23.20;45.50;;;;;;220799;1265;24331;-51
2022/04/05 14:53:53;;;;;;;6.10;1.90;;;23.20;45.60;;;;;;220441;1265;22571;-48
2022/04/05 14:59:01;;;;;;;9.30;2.50;;;23.30;45.50;;;;;;220464;1265;24369;-53
2022/04/05 15:04:06;;;;;;;6.70;3.00;;;23.30;45.20;;;;;;220269;1265;22845;-51
2022/04/05 15:09:11;;;;;;;12.10;2.70;;;23.20;45.40;;;;;;220364;1265;22555;-53
2022/04/05 15:14:15;;;;;;;7.40;2.20;;;23.30;45.80;;;;;;220651;1265;23762;-55
2022/04/05 15:19:22;;;;;;;8.60;2.30;;;23.30;47.10;;;;;;220025;1266;25321;-47
2022/04/05 15:24:26;;;;;;;13.20;2.50;;;23.30;46.70;;;;;;220307;1265;24425;-47
2022/04/05 15:29:40;;;;;;;8.30;2.30;;;23.20;47.20;;;;;;220460;1268;22678;-48
2022/04/05 15:34:54;;;;;;;9.00;1.90;;;23.30;47.30;;;;;;220569;1268;22608;-48
2022/04/05 15:40:11;;;;;;;6.90;2.30;;;23.20;47.20;;;;;;220353;1265;22759;-51
2022/04/05 15:45:46;;;;;;;6.80;2.10;;;23.20;47.20;;;;;;219994;1265;25417;-47
2022/04/05 15:51:03;;;;;;;9.30;2.20;;;23.20;47.00;;;;;;220003;1266;22535;-46
2022/04/05 15:56:20;;;;;;;8.10;2.00;;;23.20;46.80;;;;;;227917;1266;22194;-53
2022/04/05 16:01:33;;;;;;;5.90;2.20;;;23.30;46.80;;;;;;222788;1266;25343;-47
2022/04/05 16:06:43;;;;;;;6.40;2.30;;;23.40;46.00;;;;;;220765;1267;22784;-49
2022/04/05 16:12:31;;;;;;;4.90;2.00;;;23.50;46.10;;;;;;220555;1265;22544;-50
2022/04/05 16:18:15;;;;;;;4.90;2.10;;;23.60;45.90;;;;;;220349;1265;24304;-49
2022/04/05 16:23:25;;;;;;;8.00;2.40;;;23.60;45.80;;;;;;220400;1267;25751;-49
2022/04/05 16:28:54;;;;;;;6.50;2.00;;;23.60;45.60;;;;;;220749;1266;24336;-50
2022/04/05 16:34:06;;;;;;;5.50;1.90;;;23.60;45.50;;;;;;220400;1266;22522;-52
2022/04/05 16:39:21;;;;;;;4.20;1.90;;;23.50;45.50;;;;;;220757;1266;22553;-53
2022/04/05 16:44:42;;;;;;;4.50;2.30;;;23.50;45.80;;;;;;220718;1266;24277;-52
2022/04/05 16:50:00;;;;;;;6.20;2.20;;;23.40;45.60;;;;;;220621;1266;22528;-51
2022/04/05 16:55:19;;;;;;;10.10;2.60;;;23.40;45.80;;;;;;220468;1266;22563;-53
2022/04/05 17:00:31;;;;;;;6.20;2.20;;;23.40;46.20;;;;;;220266;1266;22537;-47
2022/04/05 17:05:40;;;;;;;6.40;2.10;;;23.40;45.40;;;;;;220528;1265;22526;-48
2022/04/05 17:10:55;;;;;;;5.20;1.80;;;23.40;45.40;;;;;;220435;1266;22542;-49
2022/04/05 17:16:10;;;;;;;4.30;2.00;;;23.40;45.40;;;;;;220199;1268;25443;-47
2022/04/05 17:21:23;;;;;;;8.20;2.90;;;23.40;45.10;;;;;;220590;1267;23943;-53
2022/04/05 17:27:07;;;;;;;6.20;1.80;;;23.30;45.60;;;;;;220289;1265;22718;-48
2022/04/05 17:32:48;;;;;;;8.00;2.40;;;23.30;45.40;;;;;;220604;1265;24373;-49
2022/04/05 17:38:00;;;;;;;11.60;2.60;;;23.50;45.30;;;;;;220237;1266;25609;-48
2022/04/05 17:43:33;;;;;;;14.00;2.40;;;23.50;45.30;;;;;;220466;1266;24311;-53
2022/04/05 17:54:19;;;;;;;13.90;2.30;;;23.70;44.90;;;;;;220212;1266;22545;-50
2022/04/05 17:59:25;;;;;;;;;;;23.80;44.80;;;;;;220259;1265;24240;-50
2022/04/05 18:04:50;;;;;;;13.80;2.20;;;23.90;44.60;;;;;;219975;1265;24102;-48
2022/04/05 18:10:15;;;;;;;9.20;2.20;;;23.90;44.90;;;;;;220078;1266;23153;-50
2022/04/05 18:15:29;;;;;;;9.70;2.90;;;23.80;44.80;;;;;;220784;1267;23077;-51
2022/04/05 18:20:43;;;;;;;10.70;3.50;;;23.80;45.10;;;;;;220402;1267;22566;-51
2022/04/05 18:26:24;;;;;;;8.70;4.00;;;23.70;46.80;;;;;;220510;1267;24289;-56
2022/04/05 18:31:40;;;;;;;10.80;4.50;;;23.60;46.90;;;;;;220485;1266;22523;-55
2022/04/05 18:36:50;;;;;;;10.20;4.30;;;23.50;48.30;;;;;;220731;1265;24282;-55
2022/04/05 18:42:03;;;;;;;10.40;4.10;;;23.30;48.70;;;;;;220214;1265;25471;-54
2022/04/05 18:47:22;;;;;;;8.00;3.50;;;23.30;48.50;;;;;;220114;1266;24335;-52
2022/04/05 18:52:30;;;;;;;9.50;3.20;;;23.30;48.10;;;;;;220605;1266;24213;-57
2022/04/05 18:57:44;;;;;;;11.50;4.20;;;23.20;48.00;;;;;;220265;1267;24292;-57
2022/04/05 19:03:02;;;;;;;8.30;3.40;;;23.20;47.90;;;;;;220498;1265;24527;-55
2022/04/05 19:08:33;;;;;;;7.50;3.60;;;23.10;47.70;;;;;;220709;1265;25545;-57
2022/04/05 19:13:59;;;;;;;6.20;2.60;;;23.00;48.30;;;;;;220272;1267;22534;-57
2022/04/05 19:19:24;;;;;;;7.30;3.40;;;23.00;48.00;;;;;;220570;1266;25277;-53
2022/04/05 19:24:46;;;;;;;7.70;2.50;;;23.00;50.60;;;;;;220756;1265;22564;-52
2022/04/05 19:30:09;;;;;;;7.90;3.10;;;23.00;51.00;;;;;;220925;1265;24195;-55
2022/04/05 19:35:35;;;;;;;9.60;3.90;;;22.90;51.10;;;;;;220716;1265;22620;-50
2022/04/05 19:40:46;;;;;;;8.10;3.30;;;22.90;51.10;;;;;;220533;1265;24237;-53
2022/04/05 19:46:12;;;;;;;11.70;3.70;;;22.90;51.50;;;;;;220495;1266;25312;-49
2022/04/05 19:51:22;;;;;;;11.50;3.40;;;22.90;52.50;;;;;;220666;1266;22567;-52
2022/04/05 19:56:42;;;;;;;10.00;2.70;;;22.90;52.00;;;;;;220575;1265;22465;-51
2022/04/05 20:02:22;;;;;;;9.40;3.00;;;22.90;52.00;;;;;;220490;1265;25301;-52
2022/04/05 20:07:38;;;;;;;7.60;3.10;;;22.90;52.30;;;;;;220701;1265;24409;-53
2022/04/05 20:12:54;;;;;;;12.60;3.80;;;22.80;51.90;;;;;;220509;1265;25218;-52
2022/04/05 20:23:41;;;;;;;15.70;4.00;;;22.90;54.20;;;;;;220352;1265;25235;-52
2022/04/05 20:29:01;;;;;;;15.10;4.50;;;22.80;53.70;;;;;;220700;1265;25575;-53
2022/04/05 20:34:22;;;;;;;20.50;4.30;;;22.80;54.10;;;;;;220643;1267;22553;-48
2022/04/05 20:39:35;;;;;;;20.80;3.80;;;22.70;54.60;;;;;;220442;1265;22526;-47
2022/04/05 20:44:39;;;;;;;13.40;3.80;;;22.70;55.20;;;;;;220804;1265;24420;-46
2022/04/05 20:49:50;;;;;;;13.00;3.50;;;22.70;55.90;;;;;;220468;1267;25389;-47
2022/04/05 20:55:06;;;;;;;12.40;3.70;;;22.60;56.30;;;;;;220613;1266;25252;-47
2022/04/05 21:00:16;;;;;;;12.90;3.50;;;22.70;56.50;;;;;;220719;1267;22738;-49
2022/04/05 21:05:23;;;;;;;;;;;22.60;57.20;;;;;;220583;1267;23906;-48
2022/04/05 21:10:38;;;;;;;12.50;4.20;;;22.60;56.90;;;;;;220549;1266;24425;-47
2022/04/05 21:15:56;;;;;;;9.00;3.90;;;22.60;56.80;;;;;;220455;1267;25252;-45
2022/04/05 21:21:01;;;;;;;13.10;4.10;;;22.60;57.00;;;;;;220465;1266;22540;-45
2022/04/05 21:26:12;;;;;;;12.90;3.60;;;22.60;57.70;;;;;;220602;1265;22540;-50
2022/04/05 21:31:16;;;;;;;10.50;3.10;;;22.50;57.90;;;;;;220301;1267;25339;-52
2022/04/05 21:36:26;;;;;;;9.60;3.50;;;22.50;57.60;;;;;;220471;1265;22556;-51
2022/04/05 21:41:31;;;;;;;10.40;3.80;;;22.50;56.40;;;;;;220368;1266;24304;-51
2022/04/05 21:46:37;;;;;;;13.20;4.00;;;22.50;56.00;;;;;;220451;1266;22563;-54
2022/04/05 21:51:41;;;;;;;9.60;3.00;;;22.50;55.80;;;;;;220010;1266;22541;-52
2022/04/05 21:56:45;;;;;;;8.40;3.40;;;22.50;55.60;;;;;;219879;1266;22527;-57
2022/04/05 22:01:51;;;;;;;8.10;3.20;;;22.50;55.40;;;;;;220039;1266;22570;-53
2022/04/05 22:06:55;;;;;;;7.40;2.70;;;22.40;55.10;;;;;;220175;1266;22620;-50
2022/04/05 22:12:00;;;;;;;7.00;3.00;;;22.40;55.10;;;;;;220104;1266;22557;-53
2022/04/05 22:17:04;;;;;;;9.70;3.20;;;22.30;55.10;;;;;;220231;1266;22716;-54
2022/04/05 22:22:13;;;;;;;8.90;3.30;;;22.20;55.20;;;;;;220630;1266;25393;-55
2022/04/05 22:27:17;;;;;;;9.70;3.50;;;22.10;54.70;;;;;;220507;1266;23040;-55
2022/04/05 22:32:20;;;;;;;16.60;4.20;;;22.10;54.90;;;;;;220900;1266;22580;-54
2022/04/05 22:37:24;;;;;;;13.80;3.60;;;22.20;59.60;;;;;;220650;1266;25242;-51
2022/04/05 22:42:28;;;;;;;10.80;3.10;;;22.20;59.10;;;;;;220594;1266;25247;-51
2022/04/05 22:47:32;;;;;;;7.70;2.90;;;22.20;58.70;;;;;;220442;1267;24013;-55
2022/04/05 22:52:38;;;;;;;10.90;3.00;;;22.20;58.10;;;;;;220907;1267;24416;-52
2022/04/05 22:57:41;;;;;;;10.30;2.80;;;22.20;58.50;;;;;;220454;1267;26593;-52
2022/04/05 23:02:45;;;;;;;7.70;3.50;;;22.20;58.60;;;;;;220459;1267;22544;-53
2022/04/05 23:07:49;;;;;;;8.10;3.20;;;22.20;58.10;;;;;;220728;1267;24419;-50
2022/04/05 23:12:54;;;;;;;12.40;3.30;;;22.20;58.00;;;;;;220801;1267;24176;-50
2022/04/05 23:17:57;;;;;;;10.60;3.50;;;22.40;57.50;;;;;;220490;1267;22621;-54
2022/04/05 23:23:01;;;;;;;8.40;2.90;;;22.70;56.60;;;;;;220434;1266;25291;-54
2022/04/05 23:28:06;;;;;;;8.40;3.30;;;22.90;56.30;;;;;;220422;1266;22570;-52
2022/04/05 23:33:10;;;;;;;7.10;2.80;;;23.00;55.70;;;;;;220550;1267;24245;-53
2022/04/05 23:38:14;;;;;;;6.80;2.70;;;23.10;55.20;;;;;;220676;1267;22565;-51
2022/04/05 23:43:17;;;;;;;6.50;2.30;;;23.20;54.90;;;;;;220621;1265;22528;-52
2022/04/05 23:48:21;;;;;;;8.20;3.20;;;23.30;54.60;;;;;;220344;1267;22556;-53
2022/04/05 23:53:28;;;;;;;7.10;2.70;;;23.40;54.00;;;;;;220833;1267;24413;-54
2022/04/05 23:58:32;;;;;;;7.30;2.70;;;23.50;53.70;;;;;;220557;1267;25963;-53
